Monday, December 17, 2018, 4:50 AM EST
Back to Local

KBWI, Baltimore-washington International

Location: Glen Burnie, MD, United States Lat: 39.167
Local Time: 4:50 AM EST ( 9:50 GMT) Lon: -76.683
Time Zone: US/Eastern Elev: 147 ft

Show me the last for .
Show Decoded

2018-12-17 03:54 METAR KBWI 170854Z 23004KT 10SM SCT035 SCT250 04/03 A2986 RMK AO2 SLP111
                 T00390028 58007 =
2018-12-17 02:54 METAR KBWI 170754Z 26006KT 10SM BKN033 BKN060 05/03 A2987 RMK AO2 SLP117
                 T00500033 =
2018-12-17 02:51 METAR KBWI 170751Z 26005KT 10SM BKN033 BKN060 05/03 A2988 RMK AO2 =
2018-12-17 02:08 METAR KBWI 170708Z 25005KT 10SM BKN029 BKN060 04/03 A2988 RMK AO2 T00440033 =
2018-12-17 01:54 METAR KBWI 170654Z 26005KT 10SM BKN033 BKN060 04/03 A2988 RMK AO2 SLP118
                 T00440028 =
2018-12-17 00:54 METAR KBWI 170554Z 24004KT 10SM BKN035 BKN055 04/03 A2988 RMK AO2 SLP118
                 T00390028 10050 20022 58007 =
2018-12-16 23:54 METAR KBWI 170454Z 26003KT 10SM SCT035 SCT070 02/02 A2989 RMK AO2 SLP123
                 T00220017 400890022 =
2018-12-16 22:54 METAR KBWI 170354Z 29004KT 10SM FEW018 SCT035 BKN070 04/03 A2991 RMK AO2 SLP128
                 T00440033 =
2018-12-16 22:45 METAR KBWI 170345Z 29004KT 10SM SCT018 BKN035 BKN070 05/03 A2991 RMK AO2
                 T00500033 =
2018-12-16 21:54 METAR KBWI 170254Z 31005KT 10SM BKN016 BKN033 05/03 A2990 RMK AO2 SLP124
                 T00500033 53003 =
2018-12-16 21:21 METAR KBWI 170221Z 31010KT 10SM BKN015 OVC031 05/03 A2989 RMK AO2 T00500033 =
2018-12-16 20:54 METAR KBWI 170154Z 31008KT 10SM FEW015 SCT020 OVC033 05/03 A2989 RMK AO2 SLP120
                 SCT020 V BKN T00500033 =
2018-12-16 19:54 METAR KBWI 170054Z 31009KT 10SM SCT017 BKN024 OVC033 04/03 A2989 RMK AO2 SLP123
                 T00440033 =
2018-12-16 19:41 METAR KBWI 170041Z 31008KT 10SM SCT015 OVC032 04/03 A2989 RMK AO2 T00440033 =
2018-12-16 18:54 METAR KBWI 162354Z 31007KT 10SM BKN015 OVC028 05/03 A2989 RMK AO2 SLP122 60012
                 T00500033 10061 20050 51018 =
2018-12-16 18:41 METAR KBWI 162341Z 31008KT 10SM BKN015 BKN022 OVC029 05/03 A2988 RMK AO2
                 T00500033 =
2018-12-16 17:54 METAR KBWI 162254Z 31007KT 10SM BKN014 OVC028 05/04 A2987 RMK AO2 RAE2156 SLP114
                 P0000 T00500039 =
2018-12-16 17:46 METAR KBWI 162246Z 32008G14KT 10SM BKN014 OVC028 05/03 A2987 RMK AO2 RAE2156
                 P0000 T00500033 =
2018-12-16 17:21 METAR KBWI 162221Z 33007KT 10SM SCT015 OVC028 05/04 A2986 RMK AO2 RAE2156 P0000
                 T00500039 =
2018-12-16 16:54 METAR KBWI 162154Z 31007KT 250V330 10SM -RA BKN013 OVC028 05/04 A2986 RMK AO2
                 RAE01B11 SLP111 BKN013 V SCT P0000 T00500039 =
2018-12-16 16:36 METAR KBWI 162136Z 32007KT 10SM -RA BKN013 OVC028 05/04 A2986 RMK AO2 RAE01B11
                 P0000 T00500039 =
2018-12-16 16:22 METAR KBWI 162122Z 34008KT 10SM -RA SCT014 BKN027 OVC037 05/04 A2984 RMK AO2
                 RAE01B11 P0000 T00500039 =
2018-12-16 16:10 METAR KBWI 162110Z 33009KT 10SM SCT013 BKN033 OVC041 06/04 A2984 RMK AO2 RAE01
                 P0000 T00560039 =
2018-12-16 15:54 METAR KBWI 162054Z 34009KT 9SM -RA SCT013 BKN025 OVC030 06/04 A2984 RMK AO2
                 SLP104 P0002 60012 T00560044 53011 =
2018-12-16 14:54 METAR KBWI 161954Z 33008KT 7SM -RA SCT015 OVC022 06/04 A2982 RMK AO2 SLP099
                 P0002 T00560044 =
2018-12-16 13:54 METAR KBWI 161854Z 34007KT 6SM -RA BR SCT009 BKN017 OVC023 06/05 A2980 RMK AO2
                 SLP092 P0008 T00560050 =
2018-12-16 13:29 METAR KBWI 161829Z 34009G15KT 310V020 4SM -RA BR SCT009 BKN015 OVC023 06/05
                 A2981 RMK AO2 P0006 T00610050 =
2018-12-16 13:14 METAR KBWI 161814Z 36009KT 4SM RA BR BKN012 BKN025 OVC038 06/05 A2980 RMK AO2
                 P0005 T00610050 =
2018-12-16 13:08 METAR KBWI 161808Z 35008KT 4SM RA BR SCT010 BKN016 OVC038 06/06 A2980 RMK AO2
                 P0003 T00610056 =
2018-12-16 12:54 METAR KBWI 161754Z 36006KT 4SM RA BR BKN009 BKN015 OVC020 06/06 A2980 RMK AO2
                 SLP093 P0016 60035 T00560056 10067 20056 58023 =
2018-12-16 12:37 METAR KBWI 161737Z 36007KT 4SM -RA BR BKN009 OVC017 06/06 A2981 RMK AO2 P0011
                 T00560056 =
2018-12-16 12:27 METAR KBWI 161727Z 35006KT 3SM RA BR SCT009 BKN017 OVC025 06/06 A2981 RMK AO2
                 P0010 T00560056 =
2018-12-16 11:54 METAR KBWI 161654Z 36008KT 3SM RA BR SCT006 BKN009 OVC014 06/06 A2983 RMK AO2
                 SLP101 P0006 T00610056 =
2018-12-16 11:46 METAR KBWI 161646Z 34008G14KT 3SM -RA BR BKN009 OVC012 06/06 A2983 RMK AO2 P0005
                 T00610056 =
2018-12-16 11:12 METAR KBWI 161612Z 36008KT 4SM -RA BR SCT008 BKN010 OVC015 06/06 A2985 RMK AO2
                 P0001 T00610056 =
2018-12-16 10:54 METAR KBWI 161554Z 36008KT 5SM -RA BR SCT007 BKN009 OVC015 07/06 A2986 RMK AO2
                 SLP111 P0008 T00670061 =
2018-12-16 09:54 METAR KBWI 161454Z 02009KT 4SM -RA BR BKN006 BKN009 OVC015 07/06 A2987 RMK AO2
                 DZE49RAB49 SLP116 P0001 60005 T00670061 58001 =
2018-12-16 08:54 METAR KBWI 161354Z 03010KT 1 1/4SM R10/6000VP6000FT -DZ BR BKN006 OVC010 06/06
                 A2989 RMK AO2 SLP120 P0002 T00610061 =
2018-12-16 07:54 METAR KBWI 161254Z 03008KT 1 1/4SM -DZ BR BKN006 OVC010 06/06 A2988 RMK AO2
                 SLP119 P0002 T00610061 =
2018-12-16 06:54 METAR KBWI 161154Z 05013KT 1 3/4SM -DZ BR OVC006 07/06 A2988 RMK AO2 CIG 005V010
                 SLP117 P0001 60015 70211 T00670061 10089 20067 55004 =
2018-12-16 05:54 METAR KBWI 161054Z 05013G21KT 1 3/4SM -DZ BR OVC006 07/06 A2987 RMK AO2 CIG
                 004V009 SLP115 P0002 T00670061 =
2018-12-16 04:54 METAR KBWI 160954Z 05015KT 1 1/2SM -DZ BR OVC007 07/07 A2988 RMK AO2 RAE25DZB26
                 CIG 005V011 SLP120 P0001 T00720067 =

Support USWX by starting your Amazon purchase here.